sensor_id;sensor_type;location;lat;lon;timestamp;pressure;altitude;pressure_sealevel;temperature;humidity
21361;BME280;10839;43.206;23.550;2023-01-09T00:00:48;97414.63;;;1.97;100.00
21361;BME280;10839;43.206;23.550;2023-01-09T00:03:14;97413.25;;;2.02;100.00
21361;BME280;10839;43.206;23.550;2023-01-09T00:05:39;97405.50;;;2.29;100.00
21361;BME280;10839;43.206;23.550;2023-01-09T00:08:05;97414.41;;;2.09;100.00
21361;BME280;10839;43.206;23.550;2023-01-09T00:10:32;97408.25;;;2.18;100.00
21361;BME280;10839;43.206;23.550;2023-01-09T00:12:57;97407.69;;;2.05;100.00
21361;BME280;10839;43.206;23.550;2023-01-09T00:15:23;97405.03;;;2.05;100.00
21361;BME280;10839;43.206;23.550;2023-01-09T00:17:49;97393.31;;;2.08;100.00
21361;BME280;10839;43.206;23.550;2023-01-09T00:20:15;97399.19;;;2.21;100.00
21361;BME280;10839;43.206;23.550;2023-01-09T00:22:41;97400.03;;;2.21;100.00
21361;BME280;10839;43.206;23.550;2023-01-09T00:25:08;97404.28;;;1.84;100.00
21361;BME280;10839;43.206;23.550;2023-01-09T00:27:35;97404.22;;;2.14;100.00
21361;BME280;10839;43.206;23.550;2023-01-09T00:30:01;97405.03;;;2.05;100.00
21361;BME280;10839;43.206;23.550;2023-01-09T00:32:27;97412.44;;;2.11;100.00
21361;BME280;10839;43.206;23.550;2023-01-09T00:34:54;97407.66;;;1.96;100.00
21361;BME280;10839;43.206;23.550;2023-01-09T00:37:21;97409.91;;;2.00;100.00
21361;BME280;10839;43.206;23.550;2023-01-09T00:39:47;97407.41;;;2.08;100.00
21361;BME280;10839;43.206;23.550;2023-01-09T00:42:19;97409.28;;;1.78;100.00
21361;BME280;10839;43.206;23.550;2023-01-09T00:45:09;97404.31;;;1.94;100.00
21361;BME280;10839;43.206;23.550;2023-01-09T00:47:42;97414.28;;;1.71;100.00
21361;BME280;10839;43.206;23.550;2023-01-09T00:50:13;97402.97;;;1.39;100.00
21361;BME280;10839;43.206;23.550;2023-01-09T00:52:41;97401.94;;;1.51;100.00
21361;BME280;10839;43.206;23.550;2023-01-09T00:55:08;97411.47;;;1.12;100.00
21361;BME280;10839;43.206;23.550;2023-01-09T00:57:34;97392.19;;;1.01;100.00
21361;BME280;10839;43.206;23.550;2023-01-09T01:00:01;97383.25;;;1.02;100.00
21361;BME280;10839;43.206;23.550;2023-01-09T01:02:27;97391.47;;;0.99;100.00
21361;BME280;10839;43.206;23.550;2023-01-09T01:04:54;97386.50;;;0.85;100.00
21361;BME280;10839;43.206;23.550;2023-01-09T01:07:38;97386.16;;;0.78;100.00
21361;BME280;10839;43.206;23.550;2023-01-09T01:12:36;97369.22;;;1.11;100.00
21361;BME280;10839;43.206;23.550;2023-01-09T01:15:03;97358.59;;;0.81;100.00
21361;BME280;10839;43.206;23.550;2023-01-09T01:17:29;97369.47;;;0.78;100.00
21361;BME280;10839;43.206;23.550;2023-01-09T01:19:55;97357.91;;;1.09;100.00
21361;BME280;10839;43.206;23.550;2023-01-09T01:22:21;97363.75;;;1.03;100.00
21361;BME280;10839;43.206;23.550;2023-01-09T01:24:46;97372.28;;;0.86;100.00
21361;BME280;10839;43.206;23.550;2023-01-09T01:27:12;97344.28;;;1.13;100.00
21361;BME280;10839;43.206;23.550;2023-01-09T01:29:38;97349.44;;;1.15;100.00
21361;BME280;10839;43.206;23.550;2023-01-09T01:32:04;97325.38;;;0.77;100.00
21361;BME280;10839;43.206;23.550;2023-01-09T01:34:30;97338.56;;;0.88;100.00
21361;BME280;10839;43.206;23.550;2023-01-09T01:36:55;97328.34;;;1.04;100.00
21361;BME280;10839;43.206;23.550;2023-01-09T01:39:21;97335.88;;;1.08;100.00
21361;BME280;10839;43.206;23.550;2023-01-09T01:41:47;97314.38;;;1.02;100.00
21361;BME280;10839;43.206;23.550;2023-01-09T01:47:17;97303.19;;;0.98;100.00
21361;BME280;10839;43.206;23.550;2023-01-09T01:49:45;97308.88;;;0.84;100.00
21361;BME280;10839;43.206;23.550;2023-01-09T01:52:12;97313.19;;;0.85;100.00
21361;BME280;10839;43.206;23.550;2023-01-09T01:54:38;97302.19;;;0.60;100.00
21361;BME280;10839;43.206;23.550;2023-01-09T01:57:05;97304.59;;;0.93;100.00
21361;BME280;10839;43.206;23.550;2023-01-09T01:59:41;97299.81;;;0.87;100.00
21361;BME280;10839;43.206;23.550;2023-01-09T02:02:20;97282.94;;;1.18;100.00
21361;BME280;10839;43.206;23.550;2023-01-09T02:04:48;97293.16;;;1.32;100.00
21361;BME280;10839;43.206;23.550;2023-01-09T02:07:15;97296.88;;;1.20;100.00
21361;BME280;10839;43.206;23.550;2023-01-09T02:09:42;97302.19;;;1.20;100.00
21361;BME280;10839;43.206;23.550;2023-01-09T02:12:26;97307.69;;;1.28;100.00
21361;BME280;10839;43.206;23.550;2023-01-09T02:34:52;97306.91;;;0.04;100.00
21361;BME280;10839;43.206;23.550;2023-01-09T02:37:26;97325.13;;;0.39;100.00
21361;BME280;10839;43.206;23.550;2023-01-09T02:40:28;97322.63;;;0.58;100.00
21361;BME280;10839;43.206;23.550;2023-01-09T02:42:59;97319.13;;;0.37;100.00
21361;BME280;10839;43.206;23.550;2023-01-09T02:45:25;97317.81;;;-0.10;100.00
21361;BME280;10839;43.206;23.550;2023-01-09T02:47:51;97301.50;;;0.47;100.00
21361;BME280;10839;43.206;23.550;2023-01-09T02:50:24;97298.22;;;0.13;100.00
21361;BME280;10839;43.206;23.550;2023-01-09T03:04:31;97295.28;;;-0.05;100.00
21361;BME280;10839;43.206;23.550;2023-01-09T03:09:31;97309.63;;;0.14;100.00
21361;BME280;10839;43.206;23.550;2023-01-09T03:12:04;97308.63;;;0.26;100.00
21361;BME280;10839;43.206;23.550;2023-01-09T03:14:32;97324.34;;;0.89;100.00
21361;BME280;10839;43.206;23.550;2023-01-09T03:17:03;97314.69;;;0.58;100.00
21361;BME280;10839;43.206;23.550;2023-01-09T03:19:31;97328.25;;;0.44;100.00
21361;BME280;10839;43.206;23.550;2023-01-09T03:21:58;97328.31;;;0.74;100.00
21361;BME280;10839;43.206;23.550;2023-01-09T03:24:25;97320.69;;;0.80;100.00
21361;BME280;10839;43.206;23.550;2023-01-09T03:26:51;97328.66;;;0.60;100.00
21361;BME280;10839;43.206;23.550;2023-01-09T03:29:19;97336.78;;;0.68;100.00
21361;BME280;10839;43.206;23.550;2023-01-09T03:31:44;97326.41;;;1.06;100.00
21361;BME280;10839;43.206;23.550;2023-01-09T03:34:10;97313.28;;;1.04;100.00
21361;BME280;10839;43.206;23.550;2023-01-09T03:36:36;97325.66;;;0.74;100.00
21361;BME280;10839;43.206;23.550;2023-01-09T03:39:02;97328.34;;;1.04;100.00
21361;BME280;10839;43.206;23.550;2023-01-09T03:41:28;97326.41;;;1.06;100.00
21361;BME280;10839;43.206;23.550;2023-01-09T03:43:54;97320.47;;;0.93;100.00
21361;BME280;10839;43.206;23.550;2023-01-09T03:46:19;97311.69;;;0.72;100.00
21361;BME280;10839;43.206;23.550;2023-01-09T03:48:45;97317.84;;;1.23;100.00
21361;BME280;10839;43.206;23.550;2023-01-09T03:51:11;97314.81;;;1.07;100.00
21361;BME280;10839;43.206;23.550;2023-01-09T03:53:37;97326.81;;;0.81;100.00
21361;BME280;10839;43.206;23.550;2023-01-09T03:56:03;97321.88;;;0.97;100.00
21361;BME280;10839;43.206;23.550;2023-01-09T03:58:29;97328.94;;;1.17;100.00
21361;BME280;10839;43.206;23.550;2023-01-09T04:01:00;97325.06;;;1.21;100.00
21361;BME280;10839;43.206;23.550;2023-01-09T04:03:26;97323.56;;;0.98;100.00
21361;BME280;10839;43.206;23.550;2023-01-09T04:05:52;97314.19;;;1.24;100.00
21361;BME280;10839;43.206;23.550;2023-01-09T04:08:18;97319.78;;;1.21;100.00
21361;BME280;10839;43.206;23.550;2023-01-09T04:10:46;97302.69;;;1.04;100.00
21361;BME280;10839;43.206;23.550;2023-01-09T04:13:12;97303.28;;;1.08;100.00
21361;BME280;10839;43.206;23.550;2023-01-09T04:15:38;97307.31;;;1.12;100.00
21361;BME280;10839;43.206;23.550;2023-01-09T04:18:04;97300.19;;;1.03;100.00
21361;BME280;10839;43.206;23.550;2023-01-09T04:20:31;97296.81;;;1.01;100.00
21361;BME280;10839;43.206;23.550;2023-01-09T04:22:57;97280.19;;;1.29;100.00
21361;BME280;10839;43.206;23.550;2023-01-09T04:25:25;97271.38;;;0.89;100.00
21361;BME280;10839;43.206;23.550;2023-01-09T04:27:51;97282.66;;;0.61;100.00
21361;BME280;10839;43.206;23.550;2023-01-09T04:30:17;97269.75;;;0.47;100.00
21361;BME280;10839;43.206;23.550;2023-01-09T04:32:43;97258.81;;;0.31;100.00
21361;BME280;10839;43.206;23.550;2023-01-09T04:35:09;97252.88;;;0.18;100.00
21361;BME280;10839;43.206;23.550;2023-01-09T04:37:36;97247.38;;;0.30;100.00
21361;BME280;10839;43.206;23.550;2023-01-09T04:40:04;97250.69;;;0.73;100.00
21361;BME280;10839;43.206;23.550;2023-01-09T04:42:35;97233.75;;;0.95;100.00
21361;BME280;10839;43.206;23.550;2023-01-09T04:45:01;97233.44;;;0.79;100.00
21361;BME280;10839;43.206;23.550;2023-01-09T04:47:27;97231.81;;;0.37;100.00
21361;BME280;10839;43.206;23.550;2023-01-09T04:49:55;97230.81;;;0.58;100.00
21361;BME280;10839;43.206;23.550;2023-01-09T04:52:21;97224.25;;;0.83;100.00
21361;BME280;10839;43.206;23.550;2023-01-09T04:54:47;97225.72;;;0.96;100.00
21361;BME280;10839;43.206;23.550;2023-01-09T04:57:13;97230.06;;;0.77;100.00
21361;BME280;10839;43.206;23.550;2023-01-09T04:59:39;97230.06;;;0.77;100.00
21361;BME280;10839;43.206;23.550;2023-01-09T05:02:05;97230.50;;;0.52;100.00
21361;BME280;10839;43.206;23.550;2023-01-09T05:04:30;97247.53;;;0.59;100.00
21361;BME280;10839;43.206;23.550;2023-01-09T05:06:56;97242.47;;;1.06;100.00
21361;BME280;10839;43.206;23.550;2023-01-09T05:09:22;97250.09;;;1.00;100.00
21361;BME280;10839;43.206;23.550;2023-01-09T05:11:49;97260.44;;;0.73;100.00
21361;BME280;10839;43.206;23.550;2023-01-09T05:14:15;97264.34;;;0.78;100.00
21361;BME280;10839;43.206;23.550;2023-01-09T05:16:41;97268.59;;;0.60;100.00
21361;BME280;10839;43.206;23.550;2023-01-09T05:19:07;97271.53;;;0.67;100.00
21361;BME280;10839;43.206;23.550;2023-01-09T05:21:32;97260.88;;;1.08;100.00
21361;BME280;10839;43.206;23.550;2023-01-09T05:23:58;97256.47;;;1.18;100.00
21361;BME280;10839;43.206;23.550;2023-01-09T05:26:24;97254.13;;;0.94;100.00
21361;BME280;10839;43.206;23.550;2023-01-09T05:28:52;97268.94;;;0.46;100.00
21361;BME280;10839;43.206;23.550;2023-01-09T05:31:21;97267.41;;;0.74;100.00
21361;BME280;10839;43.206;23.550;2023-01-09T05:33:47;97256.94;;;1.02;100.00
21361;BME280;10839;43.206;23.550;2023-01-09T05:36:13;97244.56;;;0.73;100.00
21361;BME280;10839;43.206;23.550;2023-01-09T05:38:39;97235.38;;;0.26;100.00
21361;BME280;10839;43.206;23.550;2023-01-09T05:41:06;97233.81;;;-0.18;100.00
21361;BME280;10839;43.206;23.550;2023-01-09T05:43:32;97224.69;;;0.28;100.00
21361;BME280;10839;43.206;23.550;2023-01-09T05:45:58;97207.97;;;0.07;100.00
21361;BME280;10839;43.206;23.550;2023-01-09T05:48:24;97218.03;;;0.13;100.00
21361;BME280;10839;43.206;23.550;2023-01-09T05:50:50;97209.13;;;0.14;100.00
21361;BME280;10839;43.206;23.550;2023-01-09T05:53:15;97211.59;;;0.56;100.00
21361;BME280;10839;43.206;23.550;2023-01-09T05:55:41;97197.44;;;0.67;100.00
21361;BME280;10839;43.206;23.550;2023-01-09T05:58:07;97208.66;;;0.80;100.00
21361;BME280;10839;43.206;23.550;2023-01-09T06:00:33;97211.47;;;0.88;100.00
21361;BME280;10839;43.206;23.550;2023-01-09T06:02:59;97190.47;;;1.05;100.00
21361;BME280;10839;43.206;23.550;2023-01-09T06:05:25;97199.00;;;0.79;100.00
21361;BME280;10839;43.206;23.550;2023-01-09T06:07:50;97198.91;;;0.90;100.00
21361;BME280;10839;43.206;23.550;2023-01-09T06:10:16;97192.19;;;0.76;100.00
21361;BME280;10839;43.206;23.550;2023-01-09T06:12:47;97194.00;;;0.76;100.00
21361;BME280;10839;43.206;23.550;2023-01-09T06:15:13;97188.50;;;0.98;100.00
21361;BME280;10839;43.206;23.550;2023-01-09T06:17:42;97199.84;;;1.19;100.00
21361;BME280;10839;43.206;23.550;2023-01-09T06:20:09;97173.91;;;1.32;100.00
21361;BME280;10839;43.206;23.550;2023-01-09T06:22:36;97191.09;;;1.57;100.00
21361;BME280;10839;43.206;23.550;2023-01-09T06:25:02;97180.63;;;1.93;100.00
21361;BME280;10839;43.206;23.550;2023-01-09T06:27:28;97170.09;;;2.20;100.00
21361;BME280;10839;43.206;23.550;2023-01-09T06:29:54;97189.50;;;2.30;100.00
21361;BME280;10839;43.206;23.550;2023-01-09T06:32:20;97193.19;;;3.03;100.00
21361;BME280;10839;43.206;23.550;2023-01-09T06:34:46;97197.28;;;3.94;100.00
21361;BME280;10839;43.206;23.550;2023-01-09T06:37:11;97198.88;;;5.07;95.59
21361;BME280;10839;43.206;23.550;2023-01-09T06:39:37;97209.31;;;3.46;100.00
21361;BME280;10839;43.206;23.550;2023-01-09T06:42:03;97229.13;;;2.60;100.00
21361;BME280;10839;43.206;23.550;2023-01-09T06:44:29;97223.22;;;2.67;100.00
21361;BME280;10839;43.206;23.550;2023-01-09T06:46:55;97201.63;;;2.89;100.00
21361;BME280;10839;43.206;23.550;2023-01-09T06:49:21;97208.16;;;2.57;100.00
21361;BME280;10839;43.206;23.550;2023-01-09T06:51:49;97213.22;;;2.41;100.00
21361;BME280;10839;43.206;23.550;2023-01-09T06:54:19;97215.88;;;2.51;100.00
21361;BME280;10839;43.206;23.550;2023-01-09T06:56:45;97211.22;;;2.63;100.00
21361;BME280;10839;43.206;23.550;2023-01-09T06:59:11;97204.84;;;2.36;100.00
21361;BME280;10839;43.206;23.550;2023-01-09T07:01:37;97204.25;;;2.52;100.00
21361;BME280;10839;43.206;23.550;2023-01-09T07:04:07;97193.25;;;4.08;100.00
21361;BME280;10839;43.206;23.550;2023-01-09T07:06:35;97200.13;;;4.36;99.46
21361;BME280;10839;43.206;23.550;2023-01-09T07:09:01;97195.63;;;3.76;100.00
21361;BME280;10839;43.206;23.550;2023-01-09T07:11:27;97202.50;;;4.90;96.16
21361;BME280;10839;43.206;23.550;2023-01-09T07:13:53;97224.06;;;5.39;90.58
21361;BME280;10839;43.206;23.550;2023-01-09T07:16:18;97223.50;;;4.42;98.54
21361;BME280;10839;43.206;23.550;2023-01-09T07:18:45;97216.66;;;3.52;100.00
21361;BME280;10839;43.206;23.550;2023-01-09T07:21:11;97218.84;;;4.70;97.50
21361;BME280;10839;43.206;23.550;2023-01-09T07:23:36;97221.41;;;4.79;93.89
21361;BME280;10839;43.206;23.550;2023-01-09T07:26:02;97225.13;;;5.20;90.20
21361;BME280;10839;43.206;23.550;2023-01-09T07:28:28;97246.81;;;6.48;85.60
21361;BME280;10839;43.206;23.550;2023-01-09T07:30:54;97231.28;;;6.36;83.34
21361;BME280;10839;43.206;23.550;2023-01-09T07:33:20;97225.06;;;5.46;88.62
21361;BME280;10839;43.206;23.550;2023-01-09T07:35:46;97208.28;;;5.19;89.98
21361;BME280;10839;43.206;23.550;2023-01-09T07:38:11;97217.09;;;7.22;81.36
21361;BME280;10839;43.206;23.550;2023-01-09T07:40:37;97219.25;;;8.86;71.59
21361;BME280;10839;43.206;23.550;2023-01-09T07:43:03;97234.44;;;8.04;75.62
21361;BME280;10839;43.206;23.550;2023-01-09T07:45:29;97226.41;;;8.71;73.06
21361;BME280;10839;43.206;23.550;2023-01-09T07:47:55;97221.59;;;9.33;68.58
21361;BME280;10839;43.206;23.550;2023-01-09T07:50:21;97233.13;;;7.30;74.95
21361;BME280;10839;43.206;23.550;2023-01-09T07:52:47;97216.28;;;7.22;76.24
21361;BME280;10839;43.206;23.550;2023-01-09T07:55:13;97212.25;;;8.18;71.65
21361;BME280;10839;43.206;23.550;2023-01-09T07:57:38;97201.06;;;8.37;69.69
21361;BME280;10839;43.206;23.550;2023-01-09T08:00:05;97197.34;;;7.93;71.79
21361;BME280;10839;43.206;23.550;2023-01-09T08:02:36;97190.34;;;9.47;67.55
21361;BME280;10839;43.206;23.550;2023-01-09T08:05:02;97182.22;;;9.90;68.16
21361;BME280;10839;43.206;23.550;2023-01-09T08:07:28;97175.88;;;10.55;66.07
21361;BME280;10839;43.206;23.550;2023-01-09T08:09:54;97200.72;;;11.12;64.04
21361;BME280;10839;43.206;23.550;2023-01-09T08:12:20;97185.28;;;11.61;61.71
21361;BME280;10839;43.206;23.550;2023-01-09T08:14:46;97177.16;;;12.08;59.75
21361;BME280;10839;43.206;23.550;2023-01-09T08:17:11;97208.03;;;10.90;61.37
21361;BME280;10839;43.206;23.550;2023-01-09T08:19:37;97199.41;;;10.74;62.90
21361;BME280;10839;43.206;23.550;2023-01-09T08:22:03;97204.03;;;10.59;63.40
21361;BME280;10839;43.206;23.550;2023-01-09T08:24:29;97213.72;;;9.96;64.29
21361;BME280;10839;43.206;23.550;2023-01-09T08:26:58;97210.88;;;8.22;71.05
21361;BME280;10839;43.206;23.550;2023-01-09T08:29:24;97199.72;;;9.36;67.81
21361;BME280;10839;43.206;23.550;2023-01-09T08:31:49;97208.72;;;9.93;65.53
21361;BME280;10839;43.206;23.550;2023-01-09T08:34:15;97212.03;;;9.60;66.77
21361;BME280;10839;43.206;23.550;2023-01-09T08:36:41;97209.63;;;10.00;66.61
21361;BME280;10839;43.206;23.550;2023-01-09T08:39:08;97215.50;;;10.67;62.04
21361;BME280;10839;43.206;23.550;2023-01-09T08:41:33;97210.25;;;11.08;61.95
21361;BME280;10839;43.206;23.550;2023-01-09T08:44:18;97208.56;;;9.80;64.89
21361;BME280;10839;43.206;23.550;2023-01-09T08:47:02;97211.03;;;12.24;58.02
21361;BME280;10839;43.206;23.550;2023-01-09T08:49:32;97219.31;;;12.09;59.37
21361;BME280;10839;43.206;23.550;2023-01-09T08:51:58;97215.78;;;12.15;58.54
21361;BME280;10839;43.206;23.550;2023-01-09T08:54:23;97205.69;;;11.83;59.73
21361;BME280;10839;43.206;23.550;2023-01-09T08:56:49;97212.47;;;11.32;60.07
21361;BME280;10839;43.206;23.550;2023-01-09T08:59:15;97188.69;;;10.53;62.96
21361;BME280;10839;43.206;23.550;2023-01-09T09:01:41;97208.66;;;11.20;61.49
21361;BME280;10839;43.206;23.550;2023-01-09T09:04:07;97212.47;;;10.77;63.20
21361;BME280;10839;43.206;23.550;2023-01-09T09:06:33;97201.84;;;10.69;63.66
21361;BME280;10839;43.206;23.550;2023-01-09T09:09:00;97184.53;;;10.78;63.50
21361;BME280;10839;43.206;23.550;2023-01-09T09:11:34;97184.16;;;11.15;61.98
21361;BME280;10839;43.206;23.550;2023-01-09T09:14:01;97186.75;;;9.25;69.78
21361;BME280;10839;43.206;23.550;2023-01-09T09:16:48;97178.53;;;9.91;67.78
21361;BME280;10839;43.206;23.550;2023-01-09T09:19:13;97186.16;;;11.68;63.73
21361;BME280;10839;43.206;23.550;2023-01-09T09:21:39;97185.44;;;11.19;62.40
21361;BME280;10839;43.206;23.550;2023-01-09T09:24:05;97190.59;;;10.38;66.93
21361;BME280;10839;43.206;23.550;2023-01-09T09:26:31;97159.75;;;10.12;66.87
21361;BME280;10839;43.206;23.550;2023-01-09T09:28:57;97154.44;;;10.68;67.07
21361;BME280;10839;43.206;23.550;2023-01-09T09:31:23;97150.03;;;11.22;64.66
21361;BME280;10839;43.206;23.550;2023-01-09T09:33:49;97137.78;;;12.33;58.54
21361;BME280;10839;43.206;23.550;2023-01-09T09:36:15;97141.84;;;11.90;58.69
21361;BME280;10839;43.206;23.550;2023-01-09T09:38:41;97143.59;;;12.24;57.50
21361;BME280;10839;43.206;23.550;2023-01-09T09:41:17;97128.63;;;13.06;55.91
21361;BME280;10839;43.206;23.550;2023-01-09T09:47:31;97130.13;;;13.59;53.63
21361;BME280;10839;43.206;23.550;2023-01-09T09:50:32;97119.28;;;13.66;52.64
21361;BME280;10839;43.206;23.550;2023-01-09T09:55:53;97090.16;;;13.24;52.90
21361;BME280;10839;43.206;23.550;2023-01-09T09:58:33;97081.06;;;13.62;53.16
21361;BME280;10839;43.206;23.550;2023-01-09T10:01:00;97069.91;;;14.70;50.57
21361;BME280;10839;43.206;23.550;2023-01-09T10:03:48;97069.09;;;15.49;48.16
21361;BME280;10839;43.206;23.550;2023-01-09T10:09:00;97049.28;;;13.01;58.65
21361;BME280;10839;43.206;23.550;2023-01-09T10:14:17;97044.88;;;14.93;53.04
21361;BME280;10839;43.206;23.550;2023-01-09T10:27:55;97036.06;;;12.01;60.89
21361;BME280;10839;43.206;23.550;2023-01-09T10:36:21;97019.94;;;10.12;70.51
21361;BME280;10839;43.206;23.550;2023-01-09T10:38:50;97036.13;;;9.77;72.06
21361;BME280;10839;43.206;23.550;2023-01-09T10:41:28;97017.75;;;10.01;71.95
21361;BME280;10839;43.206;23.550;2023-01-09T10:44:14;97007.25;;;11.09;67.31
21361;BME280;10839;43.206;23.550;2023-01-09T10:46:54;97003.91;;;9.77;71.27
21361;BME280;10839;43.206;23.550;2023-01-09T10:49:22;96978.72;;;9.00;76.11
21361;BME280;10839;43.206;23.550;2023-01-09T10:57:26;96989.91;;;9.39;74.59
21361;BME280;10839;43.206;23.550;2023-01-09T10:59:56;96963.63;;;10.04;71.26
21361;BME280;10839;43.206;23.550;2023-01-09T11:02:33;96970.94;;;9.89;72.11
21361;BME280;10839;43.206;23.550;2023-01-09T11:04:59;96959.66;;;9.73;73.64
21361;BME280;10839;43.206;23.550;2023-01-09T11:07:29;96936.25;;;10.63;71.45
21361;BME280;10839;43.206;23.550;2023-01-09T11:10:07;96945.16;;;10.70;70.04
21361;BME280;10839;43.206;23.550;2023-01-09T11:12:35;96921.19;;;10.27;71.58
21361;BME280;10839;43.206;23.550;2023-01-09T11:17:51;96933.06;;;11.00;70.28
21361;BME280;10839;43.206;23.550;2023-01-09T11:22:57;96942.06;;;9.07;79.17
21361;BME280;10839;43.206;23.550;2023-01-09T11:25:26;96978.50;;;9.58;77.10
21361;BME280;10839;43.206;23.550;2023-01-09T11:30:28;96940.91;;;8.16;84.15
21361;BME280;10839;43.206;23.550;2023-01-09T11:32:56;96979.56;;;9.36;81.42
21361;BME280;10839;43.206;23.550;2023-01-09T11:35:28;96970.28;;;9.60;77.30
21361;BME280;10839;43.206;23.550;2023-01-09T11:40:32;96956.66;;;8.48;84.77
21361;BME280;10839;43.206;23.550;2023-01-09T11:43:11;96940.44;;;9.06;81.79
21361;BME280;10839;43.206;23.550;2023-01-09T11:45:47;96968.72;;;7.48;88.21
21361;BME280;10839;43.206;23.550;2023-01-09T11:48:26;96956.94;;;7.12;94.37
21361;BME280;10839;43.206;23.550;2023-01-09T11:50:56;96971.19;;;6.82;94.69
21361;BME280;10839;43.206;23.550;2023-01-09T11:53:23;96967.50;;;6.22;99.79
21361;BME280;10839;43.206;23.550;2023-01-09T11:56:01;96972.19;;;6.04;100.00
21361;BME280;10839;43.206;23.550;2023-01-09T11:58:32;96955.38;;;6.73;98.85
21361;BME280;10839;43.206;23.550;2023-01-09T12:12:49;96966.25;;;5.70;100.00
21361;BME280;10839;43.206;23.550;2023-01-09T12:21:02;96940.53;;;5.77;100.00
21361;BME280;10839;43.206;23.550;2023-01-09T12:27:16;96918.63;;;5.18;100.00
21361;BME280;10839;43.206;23.550;2023-01-09T12:30:00;96916.56;;;5.53;100.00
21361;BME280;10839;43.206;23.550;2023-01-09T12:51:39;96891.59;;;4.89;100.00
21361;BME280;10839;43.206;23.550;2023-01-09T13:00:00;96866.28;;;4.61;100.00
21361;BME280;10839;43.206;23.550;2023-01-09T13:02:35;96901.28;;;4.82;100.00
21361;BME280;10839;43.206;23.550;2023-01-09T13:05:19;96895.13;;;4.82;100.00
21361;BME280;10839;43.206;23.550;2023-01-09T13:10:51;96899.88;;;4.46;100.00
21361;BME280;10839;43.206;23.550;2023-01-09T13:13:27;96896.59;;;4.76;100.00
21361;BME280;10839;43.206;23.550;2023-01-09T13:15:57;96884.38;;;4.34;100.00
21361;BME280;10839;43.206;23.550;2023-01-09T13:18:54;96880.03;;;4.33;100.00
21361;BME280;10839;43.206;23.550;2023-01-09T13:21:23;96895.25;;;4.56;100.00
21361;BME280;10839;43.206;23.550;2023-01-09T13:26:41;96882.38;;;3.86;100.00
21361;BME280;10839;43.206;23.550;2023-01-09T13:29:15;96857.44;;;3.79;100.00
21361;BME280;10839;43.206;23.550;2023-01-09T13:32:12;96857.06;;;3.66;100.00
21361;BME280;10839;43.206;23.550;2023-01-09T13:34:47;96858.94;;;3.48;100.00
21361;BME280;10839;43.206;23.550;2023-01-09T13:37:26;96887.41;;;3.30;100.00
21361;BME280;10839;43.206;23.550;2023-01-09T13:40:15;96874.69;;;3.75;100.00
21361;BME280;10839;43.206;23.550;2023-01-09T13:43:05;96898.31;;;3.78;100.00
21361;BME280;10839;43.206;23.550;2023-01-09T13:45:35;96868.78;;;3.89;100.00
21361;BME280;10839;43.206;23.550;2023-01-09T13:50:43;96876.66;;;3.65;100.00
21361;BME280;10839;43.206;23.550;2023-01-09T13:56:03;96898.44;;;3.68;100.00
21361;BME280;10839;43.206;23.550;2023-01-09T13:58:31;96876.69;;;3.39;100.00
21361;BME280;10839;43.206;23.550;2023-01-09T14:01:39;96858.66;;;3.92;100.00
21361;BME280;10839;43.206;23.550;2023-01-09T14:06:38;96857.25;;;3.39;100.00
21361;BME280;10839;43.206;23.550;2023-01-09T14:09:24;96837.13;;;3.78;100.00
21361;BME280;10839;43.206;23.550;2023-01-09T14:12:05;96834.75;;;3.67;100.00
21361;BME280;10839;43.206;23.550;2023-01-09T14:14:32;96817.69;;;3.36;100.00
21361;BME280;10839;43.206;23.550;2023-01-09T14:16:59;96842.25;;;3.38;100.00
21361;BME280;10839;43.206;23.550;2023-01-09T14:19:33;96825.13;;;3.66;100.00
21361;BME280;10839;43.206;23.550;2023-01-09T14:22:00;96819.97;;;3.31;100.00
21361;BME280;10839;43.206;23.550;2023-01-09T14:24:42;96814.53;;;3.40;100.00
21361;BME280;10839;43.206;23.550;2023-01-09T14:42:38;96813.69;;;3.40;100.00
21361;BME280;10839;43.206;23.550;2023-01-09T14:45:13;96802.16;;;3.65;100.00
21361;BME280;10839;43.206;23.550;2023-01-09T14:50:51;96804.25;;;3.12;100.00
21361;BME280;10839;43.206;23.550;2023-01-09T14:53:28;96803.00;;;3.24;100.00
21361;BME280;10839;43.206;23.550;2023-01-09T14:55:57;96799.72;;;3.38;100.00
21361;BME280;10839;43.206;23.550;2023-01-09T14:58:28;96814.56;;;3.15;100.00
21361;BME280;10839;43.206;23.550;2023-01-09T15:03:27;96799.72;;;3.38;100.00
21361;BME280;10839;43.206;23.550;2023-01-09T15:05:54;96778.38;;;3.22;100.00
21361;BME280;10839;43.206;23.550;2023-01-09T15:08:23;96808.66;;;3.03;100.00
21361;BME280;10839;43.206;23.550;2023-01-09T15:10:52;96809.34;;;3.31;100.00
21361;BME280;10839;43.206;23.550;2023-01-09T15:13:35;96792.09;;;3.43;100.00
21361;BME280;10839;43.206;23.550;2023-01-09T15:16:04;96792.78;;;3.11;100.00
21361;BME280;10839;43.206;23.550;2023-01-09T15:18:35;96786.53;;;2.95;100.00
21361;BME280;10839;43.206;23.550;2023-01-09T15:21:03;96800.50;;;3.22;100.00
21361;BME280;10839;43.206;23.550;2023-01-09T15:23:30;96783.97;;;3.44;100.00
21361;BME280;10839;43.206;23.550;2023-01-09T15:26:04;96784.88;;;3.19;100.00
21361;BME280;10839;43.206;23.550;2023-01-09T15:28:40;96760.66;;;2.97;100.00
21361;BME280;10839;43.206;23.550;2023-01-09T15:31:15;96768.78;;;3.29;100.00
21361;BME280;10839;43.206;23.550;2023-01-09T15:33:44;96768.00;;;3.03;100.00
21361;BME280;10839;43.206;23.550;2023-01-09T15:36:30;96765.91;;;2.89;100.00
21361;BME280;10839;43.206;23.550;2023-01-09T15:38:55;96767.81;;;2.71;100.00
21361;BME280;10839;43.206;23.550;2023-01-09T15:41:29;96769.00;;;3.10;100.00
21361;BME280;10839;43.206;23.550;2023-01-09T15:44:20;96771.66;;;3.10;100.00
21361;BME280;10839;43.206;23.550;2023-01-09T15:46:47;96772.69;;;2.83;100.00
21361;BME280;10839;43.206;23.550;2023-01-09T15:49:15;96763.97;;;2.99;100.00